WEATHER DATA

TODAY
Time Temp. Dewp. Hum. Wind dir Wind speed Wind gust Bar. 1h Prec. 24h Prec.
00:00 10.8 10.2 96 90 0.3 1.1 1015.9 0.0000 0.0000
00:10 10.6 10 96 90 0.3 0.8 1015.9 0.0000 0.0000
00:20 10.4 9.8 96 90 0.3 0.8 1015.9 0.0000 0.0000
00:30 10.4 9.9 97 90 0.3 1.1 1015.9 0.0000 0.0000
00:40 10.3 9.8 97 207 0.3 1.1 1015.9 0.0000 0.0000
00:50 10.4 9.9 97 225 0.3 1.1 1015.8 0.0000 0.0000
01:01 10.4 9.9 97 217 0.8 1.1 1015.8 0.0000 0.0000
01:10 10.4 9.9 97 204 0.8 1.4 1015.7 0.0000 0.0000
01:20 10.3 9.8 97 159 1.1 2.5 1015.7 0.0000 0.0000
01:31 10 9.5 97 125 1.4 3.3 1015.6 0.0000 0.0000
01:41 10 9.5 97 130 1.4 3.6 1015.7 0.0000 0.0000
01:50 10 9.5 97 114 1.7 3.3 1015.6 0.0000 0.0000
02:00 10.1 9.5 96 123 1.4 2.5 1015.7 0.0000 0.0000
02:11 10.2 9.6 96 123 1.4 3.6 1015.7 0.0000 0.0000
02:21 10.3 9.4 94 142 1.7 3.3 1015.7 0.0000 0.0000
02:31 10.4 9.2 92 132 1.4 3.3 1015.6 0.0000 0.0000
02:41 10.5 8.9 90 145 1.7 2.8 1015.7 0.0000 0.0000
02:51 10.7 8.5 86 135 1.7 3.3 1015.8 0.0000 0.0000
03:01 10.8 8 83 135 1.4 2.5 1015.9 0.0000 0.0000
03:11 10.7 7.8 82 130 1.4 2.8 1015.8 0.0000 0.0000
03:22 10.7 7.6 81 135 1.1 1.7 1015.9 0.0000 0.0000
03:31 10.7 7.6 81 154 1.1 2.8 1015.9 0.0000 0.0000
03:41 10.7 7.4 80 133 1.4 3.3 1016 0.0000 0.0000
03:52 10.6 7.3 80 161 1.1 1.7 1016.1 0.0000 0.0000
04:02 10.6 7.3 80 150 1.1 1.7 1016.2 0.0000 0.0000
04:12 10.7 7.4 80 151 0.8 1.7 1016.2 0.0000 0.0000
04:21 10.8 7.3 79 130 1.1 1.7 1016.2 0.0000 0.0000
04:32 10.6 7.3 80 90 0.8 1.7 1016.3 0.0000 0.0000
04:42 10.5 7.2 80 90 0.8 1.4 1016.4 0.0000 0.0000
04:52 10.3 7.2 81 90 0.8 1.7 1016.4 0.0000 0.0000
05:02 10.3 7.2 81 90 0.8 1.4 1016.4 0.0000 0.0000
05:13 10.3 7.2 81 90 0.8 1.4 1016.4 0.0000 0.0000
05:22 10.3 7 80 90 0.8 1.4 1016.3 0.0000 0.0000
05:32 10.3 7.2 81 107 0.8 1.7 1016.3 0.0000 0.0000
05:43 10.3 7 80 106 1.1 1.7 1016.3 0.0000 0.0000
05:53 10.4 6.9 79 112 1.1 2.5 1016.3 0.0000 0.0000
06:03 10.5 6.8 78 119 1.4 2.5 1016.3 0.0000 0.0000
06:13 10.6 6.7 77 120 1.1 1.7 1016.3 0.0000 0.0000
06:23 10.6 6.7 77 135 0.8 1.7 1016.3 0.0000 0.0000
06:33 10.6 6.7 77 125 1.1 2.2 1016.3 0.0000 0.0000
06:43 10.6 6.7 77 112 1.1 2.2 1016.3 0.0000 0.0000
06:54 10.5 6.6 77 130 1.1 2.5 1016.3 0.0000 0.0000
07:03 10.5 6.5 76 130 1.4 2.5 1016.4 0.0000 0.0000
07:13 10.6 6.4 75 125 1.4 2.5 1016.4 0.0000 0.0000
07:23 10.8 6.4 74 142 1.7 3.9 1016.4 0.0000 0.0000
07:34 11 6.4 73 130 1.7 3.3 1016.4 0.0000 0.0000
07:44 11.1 6.2 72 133 1.4 2.8 1016.4 0.0000 0.0000
07:53 11.2 6.3 72 141 1.7 4.2 1016.5 0.0000 0.0000
08:04 11.3 6.4 72 136 1.7 3.3 1016.5 0.0000 0.0000
08:14 11.2 6.5 73 143 1.4 3.3 1016.4 0.0000 0.0000
08:24 11.3 6.6 73 145 1.7 3.3 1016.4 0.0000 0.0000
08:34 11.4 6.5 72 135 1.7 3.3 1016.4 0.0000 0.0000
08:44 11.5 6.6 72 149 1.4 2.5 1016.4 0.0000 0.0000
08:54 11.5 6.6 72 124 1.4 2.8 1016.6 0.0000 0.0000
09:04 11.7 6.8 72 141 1.7 2.8 1016.7 0.0000 0.0000
09:15 11.8 6.9 72 123 1.4 3.9 1016.8 0.0000 0.0000
09:24 12 6.9 71 152 1.4 2.8 1016.9 0.0000 0.0000
09:34 12.1 7 71 136 1.7 3.3 1016.9 0.0000 0.0000
09:44 12.3 7 70 135 1.4 3.3 1017 0.0000 0.0000
09:55 12.6 7.3 70 142 1.4 2.5 1017.1 0.0000 0.0000
10:05 12.8 7.3 69 161 1.4 3.6 1017.1 0.0000 0.0000
10:14 13 7.5 69 150 1.4 3.3 1017.2 0.0000 0.0000
10:25 13.1 7.3 68 146 1.4 3.3 1017.1 0.0000 0.0000
10:35 13.1 7.1 67 149 1.4 2.8 1017.2 0.0000 0.0000
10:45 13.2 7.2 67 142 1.4 2.8 1017.3 0.0000 0.0000
10:55 13.4 7.6 68 158 1.4 2.5 1017.4 0.0000 0.0000
11:05 13.5 7.5 67 149 1.4 2.5 1017.4 0.0000 0.0000
11:15 13.7 7.5 66 158 1.1 2.5 1017.4 0.0000 0.0000
11:25 13.8 7.3 65 141 1.1 2.2 1017.4 0.0000 0.0000
11:35 14 7.8 66 149 1.1 1.7 1017.5 0.0000 0.0000
11:45 14.2 7.7 65 161 1.4 2.8 1017.6 0.0000 0.0000
11:55 14.4 7.9 65 144 1.1 2.2 1017.7 0.0000 0.0000
12:05 14.5 8 65 175 1.1 2.5 1017.7 0.0000 0.0000
12:16 14.7 7.7 63 145 1.4 2.8 1017.7 0.0000 0.0000
12:25 14.8 8.1 64 160 1.4 3.3 1017.7 0.0000 0.0000
12:35 14.8 7.8 63 155 1.4 2.8 1017.8 0.0000 0.0000
12:46 14.9 7.9 63 147 1.1 2.2 1017.9 0.0000 0.0000
12:56 14.9 8.2 64 161 1.1 1.7 1018 0.0000 0.0000
13:06 14.9 8.2 64 187 1.1 2.5 1018 0.0000 0.0000
13:16 14.9 8.2 64 162 1.1 1.7 1018 0.0000 0.0000
13:26 14.7 7.7 63 132 1.1 2.5 1018.1 0.0000 0.0000
13:36 14.7 8 64 132 1.1 1.7 1018.2 0.0000 0.0000
13:46 14.6 7.9 64 138 1.1 2.2 1018.2 0.0000 0.0000
13:57 14.6 7.9 64 161 1.1 1.7 1018.1 0.0000 0.0000
14:07 14.8 7.8 63 156 1.1 2.5 1018.2 0.0000 0.0000
14:17 14.9 7.9 63 148 1.1 2.5 1018.1 0.0000 0.0000
14:26 15 8 63 169 1.1 1.7 1018.2 0.0000 0.0000
14:37 15.1 7.6 61 147 1.1 2.2 1018.2 0.0000 0.0000
14:47 15.4 8.4 63 173 1.1 1.7 1018.2 0.0000 0.0000
14:57 15.8 8.5 62 202 1.4 3.3 1018.2 0.0000 0.0000
15:07 16.1 8.6 61 182 1.4 2.5 1018.2 0.0000 0.0000
15:17 16.2 8.4 60 164 1.1 2.2 1018.2 0.0000 0.0000
15:27 16.3 8.5 60 165 1.1 1.7 1018.2 0.0000 0.0000
15:37 16.3 8.5 60 199 1.1 1.7 1018.2 0.0000 0.0000
15:48 16.4 8.6 60 189 1.1 2.2 1018.3 0.0000 0.0000
15:57 16.3 8.3 59 183 0.8 1.7 1018.3 0.0000 0.0000
16:07 16.2 8.9 62 217 0.3 1.1 1018.3 0.0000 0.0000
16:18 16.1 9.1 63 221 0.8 1.1 1018.3 0.0000 0.0000
16:28 16.1 9.8 66 216 0.8 1.1 1018.4 0.0000 0.0000
16:38 16 9.7 66 194 0.3 1.1 1018.3 0.0000 0.0000
16:47 15.9 10.2 69 147 0.8 1.1 1018.3 0.0000 0.0000
16:58 15.8 9.9 68 184 0.8 1.1 1018.4 0.0000 0.0000
17:08 15.6 9.9 69 192 0.3 1.1 1018.3 0.0000 0.0000
17:18 15.4 10 70 180 0.3 1.1 1018.3 0.0000 0.0000
17:28 15.3 9.9 70 125 0.8 1.4 1018.3 0.0000 0.0000
17:38 15 10 72 156 0.8 1.1 1018.3 0.0000 0.0000
17:48 14.7 10.3 75 191 0.8 1.1 1018.3 0.0000 0.0000
17:58 14.5 10.1 75 135 0.8 1.4 1018.4 0.0000 0.0000
18:09 14.3 9.9 75 158 0.3 1.1 1018.4 0.0000 0.0000
18:18 14.2 9.6 74 180 0.3 1.1 1018.4 0.0000 0.0000
18:28 14.1 9.7 75 153 0.3 1.1 1018.4 0.0000 0.0000
18:39 14 9.8 76 171 0.3 1.1 1018.5 0.0000 0.0000
18:49 13.9 9.7 76 90 0.3 1.1 1018.5 0.0000 0.0000
18:59 13.8 9.6 76 161 0.3 1.1 1018.5 0.0000 0.0000
19:08 13.7 9.6 76 225 0.3 1.1 1018.5 0.0000 0.0000
19:19 13.6 9.6 77 220 0.8 1.1 1018.6 0.0000 0.0000
19:29 13.5 9.7 78 270 0.3 1.1 1018.7 0.0000 0.0000
19:39 13.4 9.8 79 90 0.3 1.1 1018.7 0.0000 0.0000
19:49 13.3 10.1 81 56 0.3 1.1 1018.8 0.0000 0.0000
19:59 13.2 10.4 83 56 0.3 1.1 1018.8 0.0000 0.0000
20:09 13.1 10.3 83 63 0.8 1.1 1018.8 0.0000 0.0000
20:19 13 10.4 84 90 0.3 1.1 1018.8 0.0000 0.0000
20:30 12.9 10.4 85 135 0.3 1.1 1018.8 0.0000 0.0000
20:40 12.7 10.4 86 90 0.3 1.1 1018.9 0.0000 0.0000
20:49 12.6 10.3 86 135 0.3 1.1 1018.9 0.0000 0.0000
21:00 12.4 10.3 87 140 0.8 1.1 1018.9 0.0000 0.0000

DAY STATISTIC

2021-09-18
TEMPERATURE
AVERAGE
12.7
HIGH
16.4
15:48
LOW
10.0
01:31
PRESSURE
AVERAGE
1017.2
HIGH
1018.9
20:40
LOW
1015.6
01:31
DEWPOINT
AVERAGE
8.3
HIGH
10.4
19:59
LOW
6.2
07:44
HUMIDITY
AVERAGE
75
HIGH
97
00:30
LOW
59
15:57
WIND SPEED
AVERAGE
1.0
HIGH
1.7
01:50
WIND GUST
AVERAGE
2.1
HIGH
4.2
07:53
WIND DIRECTION
PREVAILING
SE
51.6%
N
0.0
NE
2.4
E
14.3
SE
51.6
S
24.6
SW
6.3
W
0.8
NW
0.0
PRECIPITATION
RAIN HOUR
0.0
RAIN DAY
0.0
TEMPERATURE (°C)
LOW
10.0
HIGH
16.4
AVERAGE
12.7
PRESSURE (hpa)
LOW
1015.6
HIGH
1018.9
AVERAGE
1017.2
DEVICE